sensor_id;sensor_type;location;lat;lon;timestamp;P1;durP1;ratioP1;P2;durP2;ratioP2
5127;SDS011;2582;48.770;9.190;2022-08-14T00:02:15;2.90;;;2.70;;
5127;SDS011;2582;48.770;9.190;2022-08-14T00:04:41;2.77;;;2.57;;
5127;SDS011;2582;48.770;9.190;2022-08-14T00:07:07;3.80;;;3.40;;
5127;SDS011;2582;48.770;9.190;2022-08-14T00:09:33;3.17;;;2.97;;
5127;SDS011;2582;48.770;9.190;2022-08-14T00:11:59;5.97;;;3.50;;
5127;SDS011;2582;48.770;9.190;2022-08-14T00:14:25;3.03;;;2.83;;
5127;SDS011;2582;48.770;9.190;2022-08-14T00:16:52;3.53;;;3.23;;
5127;SDS011;2582;48.770;9.190;2022-08-14T00:19:18;3.30;;;3.00;;
5127;SDS011;2582;48.770;9.190;2022-08-14T00:21:44;3.10;;;2.80;;
5127;SDS011;2582;48.770;9.190;2022-08-14T00:24:10;3.37;;;3.07;;
5127;SDS011;2582;48.770;9.190;2022-08-14T00:26:35;4.57;;;2.93;;
5127;SDS011;2582;48.770;9.190;2022-08-14T00:29:01;3.50;;;2.77;;
5127;SDS011;2582;48.770;9.190;2022-08-14T00:31:26;3.77;;;3.17;;
5127;SDS011;2582;48.770;9.190;2022-08-14T00:33:52;2.83;;;2.63;;
5127;SDS011;2582;48.770;9.190;2022-08-14T00:36:19;2.80;;;2.60;;
5127;SDS011;2582;48.770;9.190;2022-08-14T00:38:47;3.57;;;3.37;;
5127;SDS011;2582;48.770;9.190;2022-08-14T00:41:13;3.33;;;3.03;;
5127;SDS011;2582;48.770;9.190;2022-08-14T00:43:38;4.03;;;3.03;;
5127;SDS011;2582;48.770;9.190;2022-08-14T00:46:09;3.50;;;3.30;;
5127;SDS011;2582;48.770;9.190;2022-08-14T00:48:35;3.63;;;3.10;;
5127;SDS011;2582;48.770;9.190;2022-08-14T00:51:05;3.00;;;2.80;;
5127;SDS011;2582;48.770;9.190;2022-08-14T00:53:33;3.03;;;2.83;;
5127;SDS011;2582;48.770;9.190;2022-08-14T00:56:00;3.13;;;2.90;;
5127;SDS011;2582;48.770;9.190;2022-08-14T00:58:27;2.80;;;2.60;;
5127;SDS011;2582;48.770;9.190;2022-08-14T01:01:06;3.30;;;3.00;;
5127;SDS011;2582;48.770;9.190;2022-08-14T01:03:34;3.30;;;2.97;;
5127;SDS011;2582;48.770;9.190;2022-08-14T01:06:02;3.70;;;3.07;;
5127;SDS011;2582;48.770;9.190;2022-08-14T01:08:28;3.63;;;3.40;;
5127;SDS011;2582;48.770;9.190;2022-08-14T01:10:55;3.27;;;2.97;;
5127;SDS011;2582;48.770;9.190;2022-08-14T01:13:23;3.27;;;2.97;;
5127;SDS011;2582;48.770;9.190;2022-08-14T01:15:52;4.97;;;3.43;;
5127;SDS011;2582;48.770;9.190;2022-08-14T01:18:20;3.80;;;2.70;;
5127;SDS011;2582;48.770;9.190;2022-08-14T01:21:05;3.43;;;3.13;;
5127;SDS011;2582;48.770;9.190;2022-08-14T01:23:37;3.20;;;2.80;;
5127;SDS011;2582;48.770;9.190;2022-08-14T01:26:05;2.80;;;2.60;;
5127;SDS011;2582;48.770;9.190;2022-08-14T01:28:31;3.50;;;3.20;;
5127;SDS011;2582;48.770;9.190;2022-08-14T01:31:11;3.40;;;3.10;;
5127;SDS011;2582;48.770;9.190;2022-08-14T01:33:42;2.90;;;2.67;;
5127;SDS011;2582;48.770;9.190;2022-08-14T01:36:12;3.50;;;3.20;;
5127;SDS011;2582;48.770;9.190;2022-08-14T01:38:41;3.80;;;3.50;;
5127;SDS011;2582;48.770;9.190;2022-08-14T01:41:10;3.00;;;2.80;;
5127;SDS011;2582;48.770;9.190;2022-08-14T01:43:42;4.57;;;2.93;;
5127;SDS011;2582;48.770;9.190;2022-08-14T01:46:12;4.33;;;3.03;;
5127;SDS011;2582;48.770;9.190;2022-08-14T01:48:42;3.03;;;2.83;;
5127;SDS011;2582;48.770;9.190;2022-08-14T01:51:09;2.90;;;2.70;;
5127;SDS011;2582;48.770;9.190;2022-08-14T01:53:38;3.30;;;3.00;;
5127;SDS011;2582;48.770;9.190;2022-08-14T01:56:05;4.53;;;3.30;;
5127;SDS011;2582;48.770;9.190;2022-08-14T01:58:31;3.20;;;3.00;;
5127;SDS011;2582;48.770;9.190;2022-08-14T02:00:57;3.87;;;3.47;;
5127;SDS011;2582;48.770;9.190;2022-08-14T02:03:23;2.70;;;2.50;;
5127;SDS011;2582;48.770;9.190;2022-08-14T02:05:52;4.13;;;3.50;;
5127;SDS011;2582;48.770;9.190;2022-08-14T02:08:24;4.50;;;3.43;;
5127;SDS011;2582;48.770;9.190;2022-08-14T02:10:53;3.73;;;3.43;;
5127;SDS011;2582;48.770;9.190;2022-08-14T02:13:40;3.30;;;3.00;;
5127;SDS011;2582;48.770;9.190;2022-08-14T02:16:08;3.47;;;3.17;;
5127;SDS011;2582;48.770;9.190;2022-08-14T02:18:34;3.10;;;2.90;;
5127;SDS011;2582;48.770;9.190;2022-08-14T02:21:00;3.23;;;3.03;;
5127;SDS011;2582;48.770;9.190;2022-08-14T02:23:28;3.40;;;3.10;;
5127;SDS011;2582;48.770;9.190;2022-08-14T02:25:54;3.13;;;2.93;;
5127;SDS011;2582;48.770;9.190;2022-08-14T02:28:20;3.90;;;3.20;;
5127;SDS011;2582;48.770;9.190;2022-08-14T02:30:47;3.50;;;3.20;;
5127;SDS011;2582;48.770;9.190;2022-08-14T02:33:13;3.23;;;2.90;;
5127;SDS011;2582;48.770;9.190;2022-08-14T02:35:39;3.60;;;2.90;;
5127;SDS011;2582;48.770;9.190;2022-08-14T02:38:07;3.33;;;3.03;;
5127;SDS011;2582;48.770;9.190;2022-08-14T02:40:33;3.20;;;2.90;;
5127;SDS011;2582;48.770;9.190;2022-08-14T02:43:01;3.30;;;3.00;;
5127;SDS011;2582;48.770;9.190;2022-08-14T02:45:28;3.63;;;3.33;;
5127;SDS011;2582;48.770;9.190;2022-08-14T02:47:57;3.30;;;3.00;;
5127;SDS011;2582;48.770;9.190;2022-08-14T02:50:28;3.70;;;3.20;;
5127;SDS011;2582;48.770;9.190;2022-08-14T02:52:53;3.30;;;3.10;;
5127;SDS011;2582;48.770;9.190;2022-08-14T02:55:19;3.60;;;3.30;;
5127;SDS011;2582;48.770;9.190;2022-08-14T02:57:45;3.60;;;3.30;;
5127;SDS011;2582;48.770;9.190;2022-08-14T03:00:15;3.63;;;3.37;;
5127;SDS011;2582;48.770;9.190;2022-08-14T03:02:42;4.50;;;3.50;;
5127;SDS011;2582;48.770;9.190;2022-08-14T03:05:07;3.77;;;3.47;;
5127;SDS011;2582;48.770;9.190;2022-08-14T03:07:36;3.80;;;3.50;;
5127;SDS011;2582;48.770;9.190;2022-08-14T03:10:02;3.00;;;2.80;;
5127;SDS011;2582;48.770;9.190;2022-08-14T03:12:28;3.20;;;3.00;;
5127;SDS011;2582;48.770;9.190;2022-08-14T03:14:55;3.90;;;3.50;;
5127;SDS011;2582;48.770;9.190;2022-08-14T03:17:21;3.33;;;3.13;;
5127;SDS011;2582;48.770;9.190;2022-08-14T03:19:47;3.90;;;3.33;;
5127;SDS011;2582;48.770;9.190;2022-08-14T03:22:13;3.63;;;3.33;;
5127;SDS011;2582;48.770;9.190;2022-08-14T03:24:39;3.77;;;3.47;;
5127;SDS011;2582;48.770;9.190;2022-08-14T03:27:04;3.80;;;3.27;;
5127;SDS011;2582;48.770;9.190;2022-08-14T03:29:30;3.23;;;3.03;;
5127;SDS011;2582;48.770;9.190;2022-08-14T03:31:56;3.50;;;3.20;;
5127;SDS011;2582;48.770;9.190;2022-08-14T03:34:23;4.70;;;3.50;;
5127;SDS011;2582;48.770;9.190;2022-08-14T03:36:49;3.90;;;3.60;;
5127;SDS011;2582;48.770;9.190;2022-08-14T03:39:22;3.67;;;3.37;;
5127;SDS011;2582;48.770;9.190;2022-08-14T03:41:49;3.77;;;3.50;;
5127;SDS011;2582;48.770;9.190;2022-08-14T03:44:16;3.73;;;3.43;;
5127;SDS011;2582;48.770;9.190;2022-08-14T03:46:42;3.20;;;3.00;;
5127;SDS011;2582;48.770;9.190;2022-08-14T03:49:08;3.57;;;3.30;;
5127;SDS011;2582;48.770;9.190;2022-08-14T03:51:34;4.73;;;3.67;;
5127;SDS011;2582;48.770;9.190;2022-08-14T03:54:02;3.47;;;3.17;;
5127;SDS011;2582;48.770;9.190;2022-08-14T03:56:32;3.83;;;3.23;;
5127;SDS011;2582;48.770;9.190;2022-08-14T03:59:00;3.67;;;3.27;;
5127;SDS011;2582;48.770;9.190;2022-08-14T04:01:29;3.60;;;3.40;;
5127;SDS011;2582;48.770;9.190;2022-08-14T04:03:54;4.20;;;3.73;;
5127;SDS011;2582;48.770;9.190;2022-08-14T04:06:26;3.80;;;3.50;;
5127;SDS011;2582;48.770;9.190;2022-08-14T04:08:52;3.50;;;3.20;;
5127;SDS011;2582;48.770;9.190;2022-08-14T04:11:18;3.30;;;3.10;;
5127;SDS011;2582;48.770;9.190;2022-08-14T04:13:44;3.40;;;3.10;;
5127;SDS011;2582;48.770;9.190;2022-08-14T04:16:11;3.43;;;3.13;;
5127;SDS011;2582;48.770;9.190;2022-08-14T04:18:40;3.30;;;3.10;;
5127;SDS011;2582;48.770;9.190;2022-08-14T04:21:07;5.63;;;3.50;;
5127;SDS011;2582;48.770;9.190;2022-08-14T04:23:34;3.93;;;3.63;;
5127;SDS011;2582;48.770;9.190;2022-08-14T04:26:01;3.40;;;3.10;;
5127;SDS011;2582;48.770;9.190;2022-08-14T04:28:29;3.57;;;3.27;;
5127;SDS011;2582;48.770;9.190;2022-08-14T04:30:55;3.50;;;3.30;;
5127;SDS011;2582;48.770;9.190;2022-08-14T04:33:20;3.60;;;3.23;;
5127;SDS011;2582;48.770;9.190;2022-08-14T04:35:48;3.17;;;2.97;;
5127;SDS011;2582;48.770;9.190;2022-08-14T04:38:15;3.93;;;3.37;;
5127;SDS011;2582;48.770;9.190;2022-08-14T04:40:59;4.57;;;3.60;;
5127;SDS011;2582;48.770;9.190;2022-08-14T04:43:44;9.20;;;3.83;;
5127;SDS011;2582;48.770;9.190;2022-08-14T04:46:10;3.27;;;3.07;;
5127;SDS011;2582;48.770;9.190;2022-08-14T04:48:41;3.70;;;3.40;;
5127;SDS011;2582;48.770;9.190;2022-08-14T04:51:07;3.23;;;3.03;;
5127;SDS011;2582;48.770;9.190;2022-08-14T04:53:35;3.77;;;3.47;;
5127;SDS011;2582;48.770;9.190;2022-08-14T04:56:03;3.97;;;3.63;;
5127;SDS011;2582;48.770;9.190;2022-08-14T04:58:30;5.00;;;3.47;;
5127;SDS011;2582;48.770;9.190;2022-08-14T05:00:57;3.80;;;3.13;;
5127;SDS011;2582;48.770;9.190;2022-08-14T05:03:24;4.07;;;3.77;;
5127;SDS011;2582;48.770;9.190;2022-08-14T05:05:55;4.20;;;3.80;;
5127;SDS011;2582;48.770;9.190;2022-08-14T05:08:23;3.37;;;3.17;;
5127;SDS011;2582;48.770;9.190;2022-08-14T05:10:53;5.20;;;3.60;;
5127;SDS011;2582;48.770;9.190;2022-08-14T05:13:23;3.33;;;3.13;;
5127;SDS011;2582;48.770;9.190;2022-08-14T05:15:51;3.43;;;3.23;;
5127;SDS011;2582;48.770;9.190;2022-08-14T05:18:21;3.63;;;3.30;;
5127;SDS011;2582;48.770;9.190;2022-08-14T05:20:49;4.00;;;3.70;;
5127;SDS011;2582;48.770;9.190;2022-08-14T05:23:17;3.57;;;3.27;;
5127;SDS011;2582;48.770;9.190;2022-08-14T05:25:46;4.50;;;3.20;;
5127;SDS011;2582;48.770;9.190;2022-08-14T05:28:14;3.33;;;3.13;;
5127;SDS011;2582;48.770;9.190;2022-08-14T05:30:45;3.67;;;3.37;;
5127;SDS011;2582;48.770;9.190;2022-08-14T05:33:15;3.70;;;3.40;;
5127;SDS011;2582;48.770;9.190;2022-08-14T05:35:45;3.53;;;3.30;;
5127;SDS011;2582;48.770;9.190;2022-08-14T05:38:12;6.43;;;3.80;;
5127;SDS011;2582;48.770;9.190;2022-08-14T05:40:41;4.10;;;3.80;;
5127;SDS011;2582;48.770;9.190;2022-08-14T05:43:10;4.50;;;4.10;;
5127;SDS011;2582;48.770;9.190;2022-08-14T05:45:36;4.90;;;3.80;;
5127;SDS011;2582;48.770;9.190;2022-08-14T05:48:02;3.73;;;3.43;;
5127;SDS011;2582;48.770;9.190;2022-08-14T05:50:28;4.27;;;3.87;;
5127;SDS011;2582;48.770;9.190;2022-08-14T05:52:54;3.70;;;3.40;;
5127;SDS011;2582;48.770;9.190;2022-08-14T05:55:20;4.10;;;3.80;;
5127;SDS011;2582;48.770;9.190;2022-08-14T05:57:57;4.00;;;3.60;;
5127;SDS011;2582;48.770;9.190;2022-08-14T06:00:30;3.57;;;3.37;;
5127;SDS011;2582;48.770;9.190;2022-08-14T06:03:00;4.00;;;3.60;;
5127;SDS011;2582;48.770;9.190;2022-08-14T06:05:27;4.53;;;4.13;;
5127;SDS011;2582;48.770;9.190;2022-08-14T06:07:53;3.97;;;3.60;;
5127;SDS011;2582;48.770;9.190;2022-08-14T06:10:19;3.50;;;3.20;;
5127;SDS011;2582;48.770;9.190;2022-08-14T06:12:45;3.70;;;3.40;;
5127;SDS011;2582;48.770;9.190;2022-08-14T06:15:10;3.97;;;3.67;;
5127;SDS011;2582;48.770;9.190;2022-08-14T06:17:49;4.93;;;3.87;;
5127;SDS011;2582;48.770;9.190;2022-08-14T06:20:16;3.90;;;3.60;;
5127;SDS011;2582;48.770;9.190;2022-08-14T06:22:42;4.23;;;3.93;;
5127;SDS011;2582;48.770;9.190;2022-08-14T06:25:09;4.03;;;3.63;;
5127;SDS011;2582;48.770;9.190;2022-08-14T06:27:40;3.73;;;3.43;;
5127;SDS011;2582;48.770;9.190;2022-08-14T06:30:09;3.27;;;3.03;;
5127;SDS011;2582;48.770;9.190;2022-08-14T06:32:37;4.40;;;4.00;;
5127;SDS011;2582;48.770;9.190;2022-08-14T06:35:04;3.63;;;3.43;;
5127;SDS011;2582;48.770;9.190;2022-08-14T06:37:39;3.67;;;3.37;;
5127;SDS011;2582;48.770;9.190;2022-08-14T06:40:05;3.17;;;2.97;;
5127;SDS011;2582;48.770;9.190;2022-08-14T06:42:32;3.70;;;3.43;;
5127;SDS011;2582;48.770;9.190;2022-08-14T06:44:58;3.40;;;3.10;;
5127;SDS011;2582;48.770;9.190;2022-08-14T06:47:25;3.60;;;3.30;;
5127;SDS011;2582;48.770;9.190;2022-08-14T06:49:51;3.53;;;3.33;;
5127;SDS011;2582;48.770;9.190;2022-08-14T06:52:16;4.27;;;3.87;;
5127;SDS011;2582;48.770;9.190;2022-08-14T06:54:42;4.10;;;3.80;;
5127;SDS011;2582;48.770;9.190;2022-08-14T06:57:08;3.77;;;3.40;;
5127;SDS011;2582;48.770;9.190;2022-08-14T06:59:34;3.77;;;3.30;;
5127;SDS011;2582;48.770;9.190;2022-08-14T07:01:59;3.40;;;3.10;;
5127;SDS011;2582;48.770;9.190;2022-08-14T07:04:44;4.17;;;3.87;;
5127;SDS011;2582;48.770;9.190;2022-08-14T07:07:37;4.33;;;3.93;;
5127;SDS011;2582;48.770;9.190;2022-08-14T07:10:05;4.70;;;4.30;;
5127;SDS011;2582;48.770;9.190;2022-08-14T07:12:32;5.03;;;4.47;;
5127;SDS011;2582;48.770;9.190;2022-08-14T07:14:58;4.07;;;3.67;;
5127;SDS011;2582;48.770;9.190;2022-08-14T07:17:23;5.20;;;4.40;;
5127;SDS011;2582;48.770;9.190;2022-08-14T07:19:49;4.13;;;3.70;;
5127;SDS011;2582;48.770;9.190;2022-08-14T07:22:15;3.80;;;3.50;;
5127;SDS011;2582;48.770;9.190;2022-08-14T07:24:40;3.20;;;3.00;;
5127;SDS011;2582;48.770;9.190;2022-08-14T07:27:06;3.47;;;3.27;;
5127;SDS011;2582;48.770;9.190;2022-08-14T07:29:31;3.43;;;3.13;;
5127;SDS011;2582;48.770;9.190;2022-08-14T07:31:57;3.17;;;2.87;;
5127;SDS011;2582;48.770;9.190;2022-08-14T07:34:23;2.90;;;2.63;;
5127;SDS011;2582;48.770;9.190;2022-08-14T07:36:48;3.40;;;3.10;;
5127;SDS011;2582;48.770;9.190;2022-08-14T07:39:14;3.30;;;3.00;;
5127;SDS011;2582;48.770;9.190;2022-08-14T07:41:39;3.13;;;2.83;;
5127;SDS011;2582;48.770;9.190;2022-08-14T07:44:05;3.30;;;3.03;;
5127;SDS011;2582;48.770;9.190;2022-08-14T07:46:31;2.70;;;2.50;;
5127;SDS011;2582;48.770;9.190;2022-08-14T07:48:57;3.03;;;2.83;;
5127;SDS011;2582;48.770;9.190;2022-08-14T07:51:23;2.60;;;2.40;;
5127;SDS011;2582;48.770;9.190;2022-08-14T07:53:49;3.80;;;2.70;;
5127;SDS011;2582;48.770;9.190;2022-08-14T07:56:15;2.87;;;2.67;;
5127;SDS011;2582;48.770;9.190;2022-08-14T07:58:41;5.30;;;2.93;;
5127;SDS011;2582;48.770;9.190;2022-08-14T08:01:07;3.60;;;3.07;;
5127;SDS011;2582;48.770;9.190;2022-08-14T08:03:33;3.20;;;2.80;;
5127;SDS011;2582;48.770;9.190;2022-08-14T08:06:02;3.20;;;2.90;;
5127;SDS011;2582;48.770;9.190;2022-08-14T08:08:28;4.10;;;2.60;;
5127;SDS011;2582;48.770;9.190;2022-08-14T08:10:55;3.10;;;2.80;;
5127;SDS011;2582;48.770;9.190;2022-08-14T08:13:21;3.30;;;3.03;;
5127;SDS011;2582;48.770;9.190;2022-08-14T08:15:51;3.10;;;2.90;;
5127;SDS011;2582;48.770;9.190;2022-08-14T08:18:18;2.90;;;2.70;;
5127;SDS011;2582;48.770;9.190;2022-08-14T08:20:46;2.90;;;2.70;;
5127;SDS011;2582;48.770;9.190;2022-08-14T08:23:16;2.77;;;2.57;;
5127;SDS011;2582;48.770;9.190;2022-08-14T08:25:44;4.00;;;2.93;;
5127;SDS011;2582;48.770;9.190;2022-08-14T08:28:13;3.10;;;2.63;;
5127;SDS011;2582;48.770;9.190;2022-08-14T08:30:41;2.90;;;2.70;;
5127;SDS011;2582;48.770;9.190;2022-08-14T08:33:18;4.40;;;3.20;;
5127;SDS011;2582;48.770;9.190;2022-08-14T08:35:46;2.80;;;2.60;;
5127;SDS011;2582;48.770;9.190;2022-08-14T08:38:17;3.00;;;2.77;;
5127;SDS011;2582;48.770;9.190;2022-08-14T08:40:45;2.87;;;2.57;;
5127;SDS011;2582;48.770;9.190;2022-08-14T08:43:22;3.43;;;2.90;;
5127;SDS011;2582;48.770;9.190;2022-08-14T08:46:00;2.93;;;2.70;;
5127;SDS011;2582;48.770;9.190;2022-08-14T08:48:46;3.07;;;2.87;;
5127;SDS011;2582;48.770;9.190;2022-08-14T08:53:58;2.70;;;2.50;;
5127;SDS011;2582;48.770;9.190;2022-08-14T09:01:57;2.97;;;2.70;;
5127;SDS011;2582;48.770;9.190;2022-08-14T09:04:23;2.90;;;2.70;;
5127;SDS011;2582;48.770;9.190;2022-08-14T09:06:50;3.07;;;2.77;;
5127;SDS011;2582;48.770;9.190;2022-08-14T09:09:20;3.10;;;2.90;;
5127;SDS011;2582;48.770;9.190;2022-08-14T09:11:47;2.73;;;2.53;;
5127;SDS011;2582;48.770;9.190;2022-08-14T09:14:13;3.00;;;2.80;;
5127;SDS011;2582;48.770;9.190;2022-08-14T09:16:39;3.30;;;2.97;;
5127;SDS011;2582;48.770;9.190;2022-08-14T09:19:05;3.60;;;3.40;;
5127;SDS011;2582;48.770;9.190;2022-08-14T09:21:31;3.30;;;3.10;;
5127;SDS011;2582;48.770;9.190;2022-08-14T09:23:58;3.30;;;3.10;;
5127;SDS011;2582;48.770;9.190;2022-08-14T09:26:25;3.50;;;3.20;;
5127;SDS011;2582;48.770;9.190;2022-08-14T09:28:50;3.80;;;3.30;;
5127;SDS011;2582;48.770;9.190;2022-08-14T09:31:16;3.50;;;3.20;;
5127;SDS011;2582;48.770;9.190;2022-08-14T09:36:35;3.60;;;3.00;;
5127;SDS011;2582;48.770;9.190;2022-08-14T09:39:31;3.63;;;3.33;;
5127;SDS011;2582;48.770;9.190;2022-08-14T09:42:32;3.40;;;3.10;;
5127;SDS011;2582;48.770;9.190;2022-08-14T09:47:58;3.63;;;3.33;;
5127;SDS011;2582;48.770;9.190;2022-08-14T09:53:02;4.33;;;3.23;;
5127;SDS011;2582;48.770;9.190;2022-08-14T09:55:29;4.20;;;3.90;;
5127;SDS011;2582;48.770;9.190;2022-08-14T09:58:10;4.07;;;3.37;;
5127;SDS011;2582;48.770;9.190;2022-08-14T10:03:10;4.20;;;3.03;;
5127;SDS011;2582;48.770;9.190;2022-08-14T10:05:36;2.90;;;2.70;;
5127;SDS011;2582;48.770;9.190;2022-08-14T10:08:04;3.47;;;3.10;;
5127;SDS011;2582;48.770;9.190;2022-08-14T10:10:42;3.17;;;2.97;;
5127;SDS011;2582;48.770;9.190;2022-08-14T10:13:19;3.37;;;3.00;;
5127;SDS011;2582;48.770;9.190;2022-08-14T10:15:47;3.43;;;3.07;;
5127;SDS011;2582;48.770;9.190;2022-08-14T10:18:17;3.90;;;3.60;;
5127;SDS011;2582;48.770;9.190;2022-08-14T10:20:55;3.50;;;3.30;;
5127;SDS011;2582;48.770;9.190;2022-08-14T10:23:25;3.20;;;3.00;;
5127;SDS011;2582;48.770;9.190;2022-08-14T10:25:56;3.10;;;2.90;;
5127;SDS011;2582;48.770;9.190;2022-08-14T10:28:40;3.67;;;3.40;;
5127;SDS011;2582;48.770;9.190;2022-08-14T10:31:27;5.80;;;3.10;;
5127;SDS011;2582;48.770;9.190;2022-08-14T10:34:17;3.13;;;2.90;;
5127;SDS011;2582;48.770;9.190;2022-08-14T10:36:45;4.07;;;3.70;;
5127;SDS011;2582;48.770;9.190;2022-08-14T10:39:17;3.50;;;3.20;;
5127;SDS011;2582;48.770;9.190;2022-08-14T10:41:45;3.37;;;3.17;;
5127;SDS011;2582;48.770;9.190;2022-08-14T10:44:16;3.93;;;3.50;;
5127;SDS011;2582;48.770;9.190;2022-08-14T10:46:49;3.87;;;3.50;;
5127;SDS011;2582;48.770;9.190;2022-08-14T10:49:21;3.43;;;3.20;;
5127;SDS011;2582;48.770;9.190;2022-08-14T10:51:59;4.13;;;3.30;;
5127;SDS011;2582;48.770;9.190;2022-08-14T10:57:15;4.27;;;3.20;;
5127;SDS011;2582;48.770;9.190;2022-08-14T10:59:53;4.30;;;3.90;;
5127;SDS011;2582;48.770;9.190;2022-08-14T11:07:25;4.97;;;3.50;;
5127;SDS011;2582;48.770;9.190;2022-08-14T11:09:52;3.43;;;2.97;;
5127;SDS011;2582;48.770;9.190;2022-08-14T11:12:25;3.17;;;2.97;;
5127;SDS011;2582;48.770;9.190;2022-08-14T11:15:02;3.77;;;3.47;;
5127;SDS011;2582;48.770;9.190;2022-08-14T11:17:31;3.50;;;3.20;;
5127;SDS011;2582;48.770;9.190;2022-08-14T11:20:00;3.97;;;3.30;;
5127;SDS011;2582;48.770;9.190;2022-08-14T11:22:29;3.00;;;2.80;;
5127;SDS011;2582;48.770;9.190;2022-08-14T11:24:55;3.30;;;3.10;;
5127;SDS011;2582;48.770;9.190;2022-08-14T11:27:30;3.33;;;2.93;;
5127;SDS011;2582;48.770;9.190;2022-08-14T11:30:04;3.20;;;2.90;;
5127;SDS011;2582;48.770;9.190;2022-08-14T11:32:33;3.60;;;3.30;;
5127;SDS011;2582;48.770;9.190;2022-08-14T11:34:59;3.53;;;3.23;;
5127;SDS011;2582;48.770;9.190;2022-08-14T11:37:27;3.80;;;3.40;;
5127;SDS011;2582;48.770;9.190;2022-08-14T11:39:54;3.50;;;3.20;;
5127;SDS011;2582;48.770;9.190;2022-08-14T11:42:23;3.00;;;2.80;;
5127;SDS011;2582;48.770;9.190;2022-08-14T11:44:51;4.43;;;3.40;;
5127;SDS011;2582;48.770;9.190;2022-08-14T11:47:17;3.70;;;3.50;;
5127;SDS011;2582;48.770;9.190;2022-08-14T11:49:47;3.80;;;3.60;;
5127;SDS011;2582;48.770;9.190;2022-08-14T11:52:16;3.80;;;3.50;;
5127;SDS011;2582;48.770;9.190;2022-08-14T11:54:43;3.67;;;3.37;;
5127;SDS011;2582;48.770;9.190;2022-08-14T11:57:14;3.77;;;3.47;;
5127;SDS011;2582;48.770;9.190;2022-08-14T11:59:40;3.00;;;2.80;;
5127;SDS011;2582;48.770;9.190;2022-08-14T12:02:10;4.53;;;3.40;;
5127;SDS011;2582;48.770;9.190;2022-08-14T12:04:50;4.50;;;2.40;;
5127;SDS011;2582;48.770;9.190;2022-08-14T12:07:17;4.83;;;2.90;;
5127;SDS011;2582;48.770;9.190;2022-08-14T12:09:44;5.03;;;3.20;;
5127;SDS011;2582;48.770;9.190;2022-08-14T12:14:58;3.20;;;2.43;;
5127;SDS011;2582;48.770;9.190;2022-08-14T12:17:25;3.23;;;3.03;;
5127;SDS011;2582;48.770;9.190;2022-08-14T12:19:53;2.57;;;2.37;;
5127;SDS011;2582;48.770;9.190;2022-08-14T12:24:59;3.20;;;3.00;;
5127;SDS011;2582;48.770;9.190;2022-08-14T12:27:39;3.10;;;2.90;;
5127;SDS011;2582;48.770;9.190;2022-08-14T12:30:06;3.17;;;2.90;;
5127;SDS011;2582;48.770;9.190;2022-08-14T12:32:42;2.60;;;2.40;;
5127;SDS011;2582;48.770;9.190;2022-08-14T12:35:11;2.60;;;2.40;;
5127;SDS011;2582;48.770;9.190;2022-08-14T12:37:38;2.70;;;2.50;;
5127;SDS011;2582;48.770;9.190;2022-08-14T12:40:15;2.37;;;2.17;;
5127;SDS011;2582;48.770;9.190;2022-08-14T12:42:42;2.57;;;2.37;;
5127;SDS011;2582;48.770;9.190;2022-08-14T12:45:08;2.70;;;2.50;;
5127;SDS011;2582;48.770;9.190;2022-08-14T12:47:41;2.80;;;2.30;;
5127;SDS011;2582;48.770;9.190;2022-08-14T12:50:10;3.40;;;2.17;;
5127;SDS011;2582;48.770;9.190;2022-08-14T12:52:40;2.30;;;2.20;;
5127;SDS011;2582;48.770;9.190;2022-08-14T12:55:08;2.43;;;2.23;;
5127;SDS011;2582;48.770;9.190;2022-08-14T12:57:37;2.20;;;2.10;;
5127;SDS011;2582;48.770;9.190;2022-08-14T13:00:04;2.40;;;2.20;;
5127;SDS011;2582;48.770;9.190;2022-08-14T13:02:34;2.77;;;2.27;;
5127;SDS011;2582;48.770;9.190;2022-08-14T13:05:02;2.13;;;2.00;;
5127;SDS011;2582;48.770;9.190;2022-08-14T13:07:28;1.77;;;1.67;;
5127;SDS011;2582;48.770;9.190;2022-08-14T13:09:54;1.87;;;1.77;;
5127;SDS011;2582;48.770;9.190;2022-08-14T13:12:20;2.23;;;2.13;;
5127;SDS011;2582;48.770;9.190;2022-08-14T13:14:56;1.90;;;1.60;;
5127;SDS011;2582;48.770;9.190;2022-08-14T13:17:24;1.80;;;1.70;;
5127;SDS011;2582;48.770;9.190;2022-08-14T13:19:54;2.30;;;2.10;;
5127;SDS011;2582;48.770;9.190;2022-08-14T13:22:24;3.90;;;1.90;;
5127;SDS011;2582;48.770;9.190;2022-08-14T13:24:51;2.30;;;1.90;;
5127;SDS011;2582;48.770;9.190;2022-08-14T13:27:21;2.50;;;2.30;;
5127;SDS011;2582;48.770;9.190;2022-08-14T13:29:49;2.20;;;2.10;;
5127;SDS011;2582;48.770;9.190;2022-08-14T13:32:17;2.73;;;2.10;;
5127;SDS011;2582;48.770;9.190;2022-08-14T13:34:44;2.17;;;2.07;;
5127;SDS011;2582;48.770;9.190;2022-08-14T13:37:15;2.07;;;1.97;;
5127;SDS011;2582;48.770;9.190;2022-08-14T13:39:52;1.80;;;1.70;;
5127;SDS011;2582;48.770;9.190;2022-08-14T13:42:19;2.73;;;1.90;;
5127;SDS011;2582;48.770;9.190;2022-08-14T13:44:49;2.00;;;1.90;;
5127;SDS011;2582;48.770;9.190;2022-08-14T13:47:17;1.37;;;1.27;;
5127;SDS011;2582;48.770;9.190;2022-08-14T13:49:46;1.63;;;1.53;;
5127;SDS011;2582;48.770;9.190;2022-08-14T13:52:17;1.83;;;1.73;;
5127;SDS011;2582;48.770;9.190;2022-08-14T13:54:45;1.50;;;1.40;;
5127;SDS011;2582;48.770;9.190;2022-08-14T13:57:12;1.50;;;1.40;;
5127;SDS011;2582;48.770;9.190;2022-08-14T13:59:43;1.70;;;1.60;;
5127;SDS011;2582;48.770;9.190;2022-08-14T14:02:10;2.20;;;1.57;;
5127;SDS011;2582;48.770;9.190;2022-08-14T14:04:41;1.53;;;1.43;;
5127;SDS011;2582;48.770;9.190;2022-08-14T14:07:08;1.70;;;1.37;;
5127;SDS011;2582;48.770;9.190;2022-08-14T14:09:37;1.57;;;1.47;;
5127;SDS011;2582;48.770;9.190;2022-08-14T14:12:05;2.07;;;1.60;;
5127;SDS011;2582;48.770;9.190;2022-08-14T14:14:32;1.70;;;1.60;;
5127;SDS011;2582;48.770;9.190;2022-08-14T14:17:01;2.97;;;1.87;;
5127;SDS011;2582;48.770;9.190;2022-08-14T14:19:31;1.70;;;1.60;;
5127;SDS011;2582;48.770;9.190;2022-08-14T14:21:59;1.80;;;1.70;;
5127;SDS011;2582;48.770;9.190;2022-08-14T14:24:26;4.23;;;1.80;;
5127;SDS011;2582;48.770;9.190;2022-08-14T14:26:52;1.63;;;1.53;;
5127;SDS011;2582;48.770;9.190;2022-08-14T14:29:20;3.30;;;2.00;;
5127;SDS011;2582;48.770;9.190;2022-08-14T14:31:47;1.93;;;1.70;;
5127;SDS011;2582;48.770;9.190;2022-08-14T14:34:13;1.83;;;1.73;;
5127;SDS011;2582;48.770;9.190;2022-08-14T14:36:40;1.70;;;1.60;;
5127;SDS011;2582;48.770;9.190;2022-08-14T14:39:08;1.90;;;1.80;;
5127;SDS011;2582;48.770;9.190;2022-08-14T14:41:37;2.80;;;1.60;;
5127;SDS011;2582;48.770;9.190;2022-08-14T14:44:05;2.00;;;1.80;;
5127;SDS011;2582;48.770;9.190;2022-08-14T14:46:35;1.93;;;1.83;;
5127;SDS011;2582;48.770;9.190;2022-08-14T14:49:03;2.00;;;1.80;;
5127;SDS011;2582;48.770;9.190;2022-08-14T14:51:31;2.47;;;2.00;;
5127;SDS011;2582;48.770;9.190;2022-08-14T14:53:56;4.33;;;1.93;;
5127;SDS011;2582;48.770;9.190;2022-08-14T14:56:22;1.83;;;1.73;;
5127;SDS011;2582;48.770;9.190;2022-08-14T14:58:49;1.93;;;1.73;;
5127;SDS011;2582;48.770;9.190;2022-08-14T15:01:15;2.00;;;1.90;;
5127;SDS011;2582;48.770;9.190;2022-08-14T15:03:47;6.07;;;2.17;;
5127;SDS011;2582;48.770;9.190;2022-08-14T15:06:17;2.30;;;2.20;;
5127;SDS011;2582;48.770;9.190;2022-08-14T15:08:48;2.87;;;1.90;;
5127;SDS011;2582;48.770;9.190;2022-08-14T15:11:14;2.20;;;1.80;;
5127;SDS011;2582;48.770;9.190;2022-08-14T15:13:39;2.07;;;1.87;;
5127;SDS011;2582;48.770;9.190;2022-08-14T15:16:06;4.70;;;2.40;;
5127;SDS011;2582;48.770;9.190;2022-08-14T15:18:33;2.10;;;2.00;;
5127;SDS011;2582;48.770;9.190;2022-08-14T15:20:59;2.00;;;1.90;;
5127;SDS011;2582;48.770;9.190;2022-08-14T15:23:27;2.90;;;2.07;;
5127;SDS011;2582;48.770;9.190;2022-08-14T15:25:54;2.10;;;2.00;;
5127;SDS011;2582;48.770;9.190;2022-08-14T15:28:20;2.63;;;2.50;;
5127;SDS011;2582;48.770;9.190;2022-08-14T15:30:50;3.03;;;2.00;;
5127;SDS011;2582;48.770;9.190;2022-08-14T15:33:17;2.33;;;2.23;;
5127;SDS011;2582;48.770;9.190;2022-08-14T15:36:02;2.20;;;2.00;;
5127;SDS011;2582;48.770;9.190;2022-08-14T15:38:29;2.40;;;2.20;;
5127;SDS011;2582;48.770;9.190;2022-08-14T15:40:55;2.10;;;2.00;;
5127;SDS011;2582;48.770;9.190;2022-08-14T15:43:25;2.03;;;1.93;;
5127;SDS011;2582;48.770;9.190;2022-08-14T15:45:52;2.47;;;2.27;;
5127;SDS011;2582;48.770;9.190;2022-08-14T15:48:18;2.53;;;2.43;;
5127;SDS011;2582;48.770;9.190;2022-08-14T15:50:44;2.70;;;2.50;;
5127;SDS011;2582;48.770;9.190;2022-08-14T15:53:10;2.10;;;2.00;;
5127;SDS011;2582;48.770;9.190;2022-08-14T15:55:36;2.57;;;2.40;;
5127;SDS011;2582;48.770;9.190;2022-08-14T15:58:02;3.50;;;2.30;;